Airport ID:K63S
Update Time (UTC):22/06/2021 02:20
Wind Speed (Knots):0
Wind Direction (Magnetic):220
Temperature (°C):30
Dew Point (°C):7
Humidity (%):23
Altimeter (inHg):29.78
Density Altitude (Feet):4400
Visibility:10+
Clouds (Hundreds of feet):CLR
Present Weather:
METAR:METAR K63S 220215Z AUTO 00000KT 10SM CLR 31/07 A2979 RMK A01

The data displayed is for advisory purposes only and is not to be used for flight planning or operations.